KTEX

Telluride Regional Airport

Telluride, Colorado, USA
METAR KTEX 182215Z AUTO 18013G18KT 10SM SCT095 19/M01 A3030 RMK AO2 T01911008
Observed Flight Rules
Jun-18 @ 22:15 UTC (17 minutes ago) Visual Flight Rules
Wind Visibility Clouds
180° at 13 knots
 Gusting to 18 knots
10 miles
  • Scattered at 9,500' AGL
Temperatures Readings
Current 19°C / 66°F
Dewpoint -1°C / 30°F
Humidity 26%
Altimeter 30.3" Hg
Pressure 1026 hPa
Elevation 2769
METAR KTEX 182215Z AUTO 18013G18KT 10SM SCT095 19/M01 A3030 RMK AO2 T01911008
Observed Flight Rules
Jun-18 @ 22:15 UTC
(17 minutes ago)
VFR
Wind Visibility
180° at 13 knots
 Gusting to 18 knots
10 miles
Clouds
  • Scattered at 9,500' AGL
Temperature Dewpoint
19°C / 66°F -1°C / 30°F
Humidity Altimeter Pressure
26% 30.3" Hg 1026 hPa